Flight Track Log - Related Links

Times and Time Zones

All times are in EDT time to prevent confusion due to time zone crossing. See the N75ZM flight status page for this flight to view local times or setup timezone preferences in your user account.

Time Position Orientation Groundspeed Altitude Reporting Facility
EDT Latitude Longitude Course Direction KTS MPH feet Rate Location/Type
Mon 04:52:02 PM 35.8858 -78.7889 82° East 89 102 1,100  Level Washington Center
Mon 04:52:08 PM 35.8861 -78.7864 82° East 89 102 1,200 896 Climbing Washington Center
Mon 04:53:09 PM 35.8744 -78.7500 112° Southeast 140 161 2,100 885 Climbing Washington Center
Mon 04:54:10 PM 35.8461 -78.7156 135° Southeast 145 167 3,000 898 Climbing Washington Center
Mon 04:55:16 PM 35.8092 -78.6936 154° Southeast 140 161 4,000 516 Climbing Washington Center
Mon 04:56:18 PM 35.7594 -78.6764 164° South 174 200 4,100 148 Climbing Washington Center
Mon 04:57:18 PM 35.7156 -78.6797 184° South 181 208 4,300 446 Climbing Washington Center
Mon 04:58:19 PM 35.6811 -78.7194 223° Southwest 159 183 5,000 703 Climbing Washington Center
Mon 04:59:26 PM 35.6450 -78.7486 213° Southwest 146 168 5,800 656 Climbing Washington Center
Mon 05:00:27 PM 35.6128 -78.7781 217° Southwest 142 163 6,400 555 Climbing Washington Center
Mon 05:01:25 PM 35.5767 -78.8072 213° Southwest 148 170 6,900 62 Climbing Washington Center
Mon 05:03:00 PM 35.5615 -78.8896 257° West  Level Estimated
Mon 05:10:00 PM 35.4937 -79.2532 257° West  Level Estimated
Mon 05:11:00 PM 35.4840 -79.3051 257° West  Level Estimated
Mon 05:12:00 PM 35.4438 -79.3177 194° South  Level FlightAware Approximate
Mon 05:13:00 PM 35.4037 -79.3302 194° South  Level FlightAware Approximate
Mon 05:14:00 PM 35.3636 -79.3428 194° South  Level FlightAware Approximate
Mon 05:15:00 PM 35.3234 -79.3553 194° South  Level FlightAware Approximate
Mon 05:16:00 PM 35.2833 -79.3678 194° South  Level FlightAware Approximate
Mon 05:17:00 PM 35.2764 -79.4234 231° Southwest  Level Estimated
Mon 05:18:00 PM 35.2447 -79.4641 226° Southwest  Level FlightAware Approximate
Mon 05:19:00 PM 35.2130 -79.5048 226° Southwest  Level FlightAware Approximate
Mon 05:20:00 PM 35.1812 -79.5455 226° Southwest  Level FlightAware Approximate
Mon 05:21:00 PM 35.1494 -79.5861 226° Southwest  Level FlightAware Approximate
Mon 05:22:00 PM 35.1177 -79.6267 226° Southwest  Level FlightAware Approximate
Mon 05:23:00 PM 35.0859 -79.6672 226° Southwest  Level FlightAware Approximate
Mon 05:24:00 PM 35.0541 -79.7077 226° Southwest  Level FlightAware Approximate
Mon 05:25:00 PM 35.0223 -79.7482 226° Southwest  Level FlightAware Approximate
Mon 05:26:00 PM 34.9905 -79.7887 226° Southwest  Level FlightAware Approximate
Mon 05:27:00 PM 34.9586 -79.8291 226° Southwest  Level FlightAware Approximate
Mon 05:27:43 PM 34.8733 -79.9272 225° Southwest 162 186 8,100  Level Atlanta Center
Mon 05:28:00 PM 34.9268 -79.8695 226° Southwest  Level FlightAware Approximate
Mon 05:28:37 PM 34.8456 -79.9692 231° Southwest 162 186 8,100  Level Atlanta Center
Mon 05:29:00 PM 34.8949 -79.9099 226° Southwest  Level FlightAware Approximate
Mon 05:29:32 PM 34.8217 -80.0108 235° Southwest 162 186 8,100  Level Atlanta Center
Mon 05:30:00 PM 34.8954 -79.9659 231° Southwest  Level Estimated
Mon 05:30:39 PM 34.8278 -80.0661 278° West 154 177 8,100  Level Atlanta Center
Mon 05:31:00 PM 34.8631 -80.0057 225° Southwest  Level FlightAware Approximate
Mon 05:31:34 PM 34.8294 -80.1167 272° West 153 176 8,100  Level Atlanta Center
Mon 05:32:00 PM 34.8307 -80.0454 225° Southwest  Level FlightAware Approximate
Mon 05:32:41 PM 34.8311 -80.1747 272° West 152 175 8,100  Level Atlanta Center
Mon 05:33:42 PM 34.8308 -80.2253 270° West 153 176 8,100  Level Atlanta Center
Mon 05:34:43 PM 34.8344 -80.2758 275° West 154 177 8,100  Level Atlanta Center
Mon 05:35:49 PM 34.8383 -80.3364 274° West 156 180 8,100  Level Atlanta Center
Mon 05:36:51 PM 34.8400 -80.3894 272° West 155 178 8,100  Level Atlanta Center
Mon 05:37:51 PM 34.8436 -80.4425 275° West 154 177 8,100  Level Atlanta Center
Mon 05:38:52 PM 34.8428 -80.4931 269° West 153 176 8,100  Level Atlanta Center
Mon 05:39:53 PM 34.8444 -80.5436 272° West 154 177 8,100  Level Atlanta Center
Mon 05:40:54 PM 34.8481 -80.5967 275° West 154 177 8,100  Level Atlanta Center
Mon 05:41:49 PM 34.8472 -80.6472 269° West 156 180 8,100  Level Atlanta Center
Mon 05:42:56 PM 34.8508 -80.7053 274° West 154 177 8,100  Level Atlanta Center
Mon 05:43:57 PM 34.8522 -80.7583 272° West 155 178 8,100  Level Atlanta Center
Mon 05:44:57 PM 34.8536 -80.8089 272° West 157 181 8,100  Level Atlanta Center
Mon 05:46:04 PM 34.8575 -80.8722 274° West 159 183 8,100  Level Atlanta Center
Mon 05:46:59 PM 34.8586 -80.9228 272° West 161 185 8,100  Level Atlanta Center
Mon 05:48:00 PM 34.8600 -80.9783 272° West 162 186 8,100  Level Atlanta Center
Mon 05:48:55 PM 34.8614 -81.0264 272° West 161 185 8,100  Level Atlanta Center
Mon 05:49:55 PM 34.8647 -81.0819 274° West 163 188 8,100  Level Atlanta Center
Mon 05:50:56 PM 34.8661 -81.1375 272° West 165 190 8,100  Level Atlanta Center
Mon 05:52:03 PM 34.8653 -81.1983 269° West 165 190 8,100  Level Atlanta Center
Mon 05:53:04 PM 34.8689 -81.2539 275° West 166 191 8,100  Level Atlanta Center
Mon 05:54:11 PM 34.8703 -81.3172 272° West 166 191 8,100  Level Atlanta Center
Mon 05:55:06 PM 34.8714 -81.3703 271° West 165 190 8,100 -259 Level Atlanta Center
Mon 05:56:07 PM 34.8769 -81.4308 276° West 172 198 7,600 -446 Descending Atlanta Center
Mon 05:57:07 PM 34.8739 -81.4944 267° West 186 214 7,200 -496 Descending Atlanta Center
Mon 05:58:08 PM 34.8711 -81.5553 267° West 189 217 6,600 -517 Descending Atlanta Center
Mon 05:59:03 PM 34.8722 -81.6108 271° West 178 205 6,200 -436 Descending Atlanta Center

Login

Don't have an account? Register now (free) for customized features, flight alerts, and more!